createdAt,value
2023-03-18T00:00:19.192Z,100.00
2023-03-18T00:05:21.896Z,100.00
2023-03-18T00:10:25.005Z,100.00
2023-03-18T00:15:29.456Z,100.00
2023-03-18T00:20:39.317Z,100.00
2023-03-18T00:25:43.822Z,100.00
2023-03-18T00:30:49.492Z,100.00
2023-03-18T00:35:55.358Z,100.00
2023-03-18T00:41:04.251Z,100.00
2023-03-18T00:46:08.310Z,100.00
2023-03-18T00:51:13.895Z,100.00
2023-03-18T00:56:18.141Z,100.00
2023-03-18T01:01:23.285Z,100.00
2023-03-18T01:06:29.349Z,100.00
2023-03-18T01:11:33.276Z,100.00
2023-03-18T01:16:37.558Z,100.00
2023-03-18T01:21:40.272Z,100.00
2023-03-18T01:26:43.036Z,100.00
2023-03-18T01:31:47.272Z,100.00
2023-03-18T01:36:52.470Z,100.00
2023-03-18T01:41:56.995Z,100.00
2023-03-18T01:47:07.815Z,100.00
2023-03-18T01:52:21.913Z,100.00
2023-03-18T01:57:25.305Z,100.00
2023-03-18T02:02:29.976Z,100.00
2023-03-18T02:07:36.702Z,100.00
2023-03-18T02:12:43.890Z,100.00
2023-03-18T02:17:56.063Z,100.00
2023-03-18T02:23:05.171Z,100.00
2023-03-18T02:28:13.361Z,100.00
2023-03-18T02:33:19.508Z,100.00
2023-03-18T02:38:22.894Z,100.00
2023-03-18T02:43:29.529Z,100.00
2023-03-18T02:48:38.636Z,100.00
2023-03-18T02:53:41.719Z,100.00
2023-03-18T02:58:46.839Z,100.00
2023-03-18T03:03:53.442Z,100.00
2023-03-18T03:08:57.171Z,100.00
2023-03-18T03:14:02.991Z,100.00
2023-03-18T03:19:08.146Z,100.00
2023-03-18T03:24:13.779Z,100.00
2023-03-18T03:29:18.347Z,100.00
2023-03-18T03:34:21.148Z,100.00
2023-03-18T03:39:24.369Z,100.00
2023-03-18T03:44:30.788Z,100.00
2023-03-18T03:49:33.773Z,100.00
2023-03-18T03:54:38.039Z,100.00
2023-03-18T03:59:42.193Z,100.00
2023-03-18T04:04:51.570Z,100.00
2023-03-18T04:10:01.583Z,100.00
2023-03-18T04:15:09.541Z,100.00
2023-03-18T04:20:13.882Z,100.00
2023-03-18T04:25:16.714Z,100.00
2023-03-18T04:30:23.211Z,100.00
2023-03-18T04:35:39.272Z,100.00
2023-03-18T04:40:42.832Z,100.00
2023-03-18T04:45:49.195Z,100.00
2023-03-18T04:50:52.678Z,100.00
2023-03-18T04:56:00.673Z,100.00
2023-03-18T05:01:14.024Z,100.00
2023-03-18T05:06:23.001Z,100.00
2023-03-18T05:11:41.656Z,100.00
2023-03-18T05:16:55.183Z,100.00
2023-03-18T05:21:58.103Z,100.00
2023-03-18T05:27:01.517Z,100.00
2023-03-18T05:32:16.858Z,100.00
2023-03-18T05:37:21.752Z,100.00
2023-03-18T05:42:38.631Z,100.00
2023-03-18T05:47:51.960Z,100.00
2023-03-18T05:52:57.724Z,100.00
2023-03-18T05:58:03.841Z,100.00
2023-03-18T06:03:10.139Z,100.00
2023-03-18T06:08:13.287Z,100.00
2023-03-18T06:13:16.391Z,100.00
2023-03-18T06:18:20.703Z,100.00
2023-03-18T06:23:24.617Z,100.00
2023-03-18T06:28:30.771Z,100.00
2023-03-18T06:33:38.303Z,100.00
2023-03-18T06:38:43.815Z,100.00
2023-03-18T06:43:50.471Z,100.00
2023-03-18T06:48:56.925Z,100.00
2023-03-18T06:54:05.915Z,100.00
2023-03-18T06:59:09.890Z,100.00
2023-03-18T07:04:15.318Z,100.00
2023-03-18T07:09:18.734Z,100.00
2023-03-18T07:14:30.807Z,100.00
2023-03-18T07:19:36.135Z,100.00
2023-03-18T07:24:40.265Z,100.00
2023-03-18T07:29:43.641Z,100.00
2023-03-18T07:34:48.430Z,100.00
2023-03-18T07:39:53.160Z,100.00
2023-03-18T07:44:56.239Z,100.00
2023-03-18T07:50:00.996Z,100.00
2023-03-18T07:55:05.157Z,100.00
2023-03-18T08:00:12.336Z,100.00
2023-03-18T08:05:20.081Z,100.00
2023-03-18T08:11:18.223Z,100.00
2023-03-18T08:16:21.062Z,100.00
2023-03-18T08:21:27.280Z,100.00
2023-03-18T08:26:30.261Z,100.00
2023-03-18T08:31:33.122Z,100.00
2023-03-18T08:36:37.255Z,100.00
2023-03-18T08:41:46.614Z,100.00
2023-03-18T08:46:51.478Z,100.00
2023-03-18T08:51:56.538Z,100.00
2023-03-18T08:57:00.542Z,100.00
2023-03-18T09:02:06.024Z,100.00
2023-03-18T09:07:10.398Z,100.00
2023-03-18T09:12:13.994Z,100.00
2023-03-18T09:17:16.925Z,100.00
2023-03-18T09:22:21.668Z,100.00
2023-03-18T09:27:24.503Z,100.00
2023-03-18T09:32:27.239Z,100.00
2023-03-18T09:37:31.682Z,100.00
2023-03-18T09:42:56.582Z,100.00
2023-03-18T09:48:14.697Z,100.00
2023-03-18T09:53:24.414Z,100.00
2023-03-18T09:58:32.091Z,100.00
2023-03-18T10:03:40.673Z,100.00
2023-03-18T10:08:57.974Z,100.00
2023-03-18T10:14:24.717Z,100.00
2023-03-18T10:19:28.804Z,100.00
2023-03-18T10:24:38.886Z,100.00
2023-03-18T10:29:46.478Z,100.00
2023-03-18T10:35:06.117Z,100.00
2023-03-18T10:40:15.883Z,100.00
2023-03-18T10:45:25.938Z,100.00
2023-03-18T10:50:35.162Z,100.00
2023-03-18T10:55:57.539Z,100.00
2023-03-18T11:01:00.880Z,100.00
2023-03-18T11:06:05.695Z,100.00
2023-03-18T11:11:32.851Z,100.00
2023-03-18T11:16:39.910Z,100.00
2023-03-18T11:21:42.772Z,100.00
2023-03-18T11:26:54.033Z,100.00
2023-03-18T11:31:58.608Z,100.00
2023-03-18T11:37:05.935Z,99.34
2023-03-18T11:42:21.911Z,99.25
2023-03-18T11:47:31.747Z,98.23
2023-03-18T11:52:45.406Z,99.67
2023-03-18T11:58:24.225Z,96.89
2023-03-18T12:04:13.708Z,97.84
2023-03-18T12:09:22.698Z,96.64
2023-03-18T12:14:35.712Z,97.46
2023-03-18T12:20:12.538Z,98.28
2023-03-18T12:25:40.702Z,96.71
2023-03-18T12:31:45.820Z,96.39
2023-03-18T12:37:03.410Z,96.13
2023-03-18T12:42:14.333Z,91.91
2023-03-18T12:47:21.920Z,92.59
2023-03-18T12:52:33.765Z,93.01
2023-03-18T12:57:42.813Z,91.76
2023-03-18T13:02:53.168Z,91.62
2023-03-18T13:08:26.510Z,92.04
2023-03-18T13:13:34.771Z,92.60
2023-03-18T13:18:43.488Z,93.39
2023-03-18T13:24:11.782Z,92.17
2023-03-18T13:29:29.689Z,93.34
2023-03-18T13:34:58.012Z,92.61
2023-03-18T13:40:19.157Z,92.71
2023-03-18T13:45:26.131Z,93.97
2023-03-18T13:50:39.609Z,93.85
2023-03-18T13:55:49.717Z,93.89
2023-03-18T14:01:28.393Z,95.92
2023-03-18T14:06:48.375Z,100.00
2023-03-18T14:11:54.197Z,96.65
2023-03-18T14:16:57.958Z,98.55
2023-03-18T14:22:08.526Z,100.00
2023-03-18T14:27:24.584Z,100.00
2023-03-18T14:32:39.538Z,100.00
2023-03-18T14:38:04.049Z,100.00
2023-03-18T14:43:18.335Z,100.00
2023-03-18T14:48:29.195Z,100.00
2023-03-18T14:53:36.647Z,100.00
2023-03-18T14:58:46.917Z,100.00
2023-03-18T15:03:54.656Z,100.00
2023-03-18T15:09:05.520Z,100.00
2023-03-18T15:14:14.093Z,100.00
2023-03-18T15:19:21.976Z,100.00
2023-03-18T15:24:29.064Z,100.00
2023-03-18T15:29:37.080Z,100.00
2023-03-18T15:34:43.945Z,100.00
2023-03-18T15:39:48.537Z,100.00
2023-03-18T15:44:59.747Z,100.00
2023-03-18T15:50:16.036Z,100.00
2023-03-18T15:55:29.130Z,100.00
2023-03-18T16:00:38.542Z,100.00
2023-03-18T16:05:41.479Z,100.00
2023-03-18T16:10:44.720Z,100.00
2023-03-18T16:15:49.118Z,100.00
2023-03-18T16:20:53.822Z,100.00
2023-03-18T16:25:56.959Z,100.00
2023-03-18T16:31:02.146Z,100.00
2023-03-18T16:36:06.815Z,100.00
2023-03-18T16:41:11.003Z,100.00
2023-03-18T16:46:19.647Z,100.00
2023-03-18T16:51:24.723Z,100.00
2023-03-18T16:56:29.070Z,100.00
2023-03-18T17:01:33.815Z,100.00
2023-03-18T17:06:36.888Z,100.00
2023-03-18T17:11:41.769Z,100.00
2023-03-18T17:16:46.192Z,100.00
2023-03-18T17:21:54.622Z,100.00
2023-03-18T17:27:01.293Z,100.00
2023-03-18T17:32:12.400Z,100.00
2023-03-18T17:37:16.501Z,100.00
2023-03-18T17:42:30.839Z,100.00
2023-03-18T17:47:35.295Z,100.00
2023-03-18T17:52:41.214Z,100.00
2023-03-18T17:57:46.843Z,100.00
2023-03-18T18:02:54.620Z,100.00
2023-03-18T18:07:58.087Z,100.00
2023-03-18T18:13:19.764Z,100.00
2023-03-18T18:18:29.038Z,100.00
2023-03-18T18:23:33.559Z,100.00
2023-03-18T18:28:38.533Z,100.00
2023-03-18T18:33:51.818Z,100.00
2023-03-18T18:38:56.666Z,100.00
2023-03-18T18:44:07.818Z,100.00
2023-03-18T18:49:24.644Z,100.00
2023-03-18T18:54:32.142Z,100.00
2023-03-18T18:59:34.935Z,100.00
2023-03-18T19:04:47.633Z,100.00
2023-03-18T19:10:15.676Z,100.00
2023-03-18T19:15:22.460Z,100.00
2023-03-18T19:20:30.119Z,100.00
2023-03-18T19:25:35.495Z,100.00
2023-03-18T19:30:39.792Z,100.00
2023-03-18T19:35:48.556Z,100.00
2023-03-18T19:40:54.663Z,100.00
2023-03-18T19:45:59.279Z,100.00
2023-03-18T19:51:04.025Z,100.00
2023-03-18T19:56:10.612Z,100.00
2023-03-18T20:01:13.997Z,100.00
2023-03-18T20:06:20.137Z,100.00
2023-03-18T20:11:26.267Z,100.00
2023-03-18T20:16:32.057Z,100.00
2023-03-18T20:21:38.052Z,100.00
2023-03-18T20:26:41.104Z,100.00
2023-03-18T20:31:45.763Z,100.00
2023-03-18T20:36:50.299Z,100.00
2023-03-18T20:41:54.669Z,100.00
2023-03-18T20:46:57.959Z,100.00
2023-03-18T20:52:26.309Z,100.00
2023-03-18T20:57:29.533Z,100.00
2023-03-18T21:02:39.821Z,100.00
2023-03-18T21:07:49.415Z,100.00
2023-03-18T21:12:56.331Z,100.00
2023-03-18T21:18:01.279Z,100.00
2023-03-18T21:23:05.539Z,100.00
2023-03-18T21:28:11.890Z,100.00
2023-03-18T21:33:58.768Z,100.00
2023-03-18T21:39:08.124Z,100.00
2023-03-18T21:44:13.681Z,100.00
2023-03-18T21:49:21.838Z,100.00
2023-03-18T21:54:28.120Z,100.00
2023-03-18T21:59:33.337Z,100.00
2023-03-18T22:04:37.251Z,100.00
2023-03-18T22:09:42.919Z,100.00
2023-03-18T22:14:47.611Z,100.00
2023-03-18T22:19:51.925Z,100.00
2023-03-18T22:24:56.594Z,100.00
2023-03-18T22:30:03.291Z,100.00
2023-03-18T22:35:15.109Z,100.00
2023-03-18T22:40:23.399Z,100.00
2023-03-18T22:45:35.326Z,100.00
2023-03-18T22:50:38.938Z,100.00
2023-03-18T22:55:43.316Z,100.00
2023-03-18T23:00:49.172Z,100.00
2023-03-18T23:05:54.709Z,100.00
2023-03-18T23:11:09.041Z,100.00
2023-03-18T23:16:18.372Z,100.00
2023-03-18T23:21:24.200Z,100.00
2023-03-18T23:26:29.892Z,100.00
2023-03-18T23:31:41.308Z,100.00
2023-03-18T23:36:49.055Z,100.00
2023-03-18T23:41:58.181Z,100.00
2023-03-18T23:47:01.392Z,100.00
2023-03-18T23:52:08.256Z,100.00
2023-03-18T23:57:19.095Z,100.00
